sensor_id;sensor_type;location;lat;lon;timestamp;pressure;altitude;pressure_sealevel;temperature;humidity
26807;BME280;14380;49.910;6.792;2023-09-08T00:00:12;98992.84;;;17.08;100.00
26807;BME280;14380;49.910;6.792;2023-09-08T00:02:39;98995.63;;;17.30;100.00
26807;BME280;14380;49.910;6.792;2023-09-08T00:05:05;99003.13;;;17.24;100.00
26807;BME280;14380;49.910;6.792;2023-09-08T00:07:32;98999.50;;;17.14;100.00
26807;BME280;14380;49.910;6.792;2023-09-08T00:09:58;98992.84;;;17.08;100.00
26807;BME280;14380;49.910;6.792;2023-09-08T00:12:26;98995.13;;;17.13;100.00
26807;BME280;14380;49.910;6.792;2023-09-08T00:14:53;98992.09;;;17.06;100.00
26807;BME280;14380;49.910;6.792;2023-09-08T00:17:19;98995.03;;;17.15;100.00
26807;BME280;14380;49.910;6.792;2023-09-08T00:19:46;98987.13;;;17.13;100.00
26807;BME280;14380;49.910;6.792;2023-09-08T00:22:12;98992.47;;;17.24;100.00
26807;BME280;14380;49.910;6.792;2023-09-08T00:24:39;98990.88;;;16.99;100.00
26807;BME280;14380;49.910;6.792;2023-09-08T00:27:05;98990.69;;;16.78;100.00
26807;BME280;14380;49.910;6.792;2023-09-08T00:29:33;98992.66;;;16.87;100.00
26807;BME280;14380;49.910;6.792;2023-09-08T00:31:59;98992.78;;;16.74;100.00
26807;BME280;14380;49.910;6.792;2023-09-08T00:34:26;98996.53;;;16.83;100.00
26807;BME280;14380;49.910;6.792;2023-09-08T00:36:52;98994.38;;;16.88;100.00
26807;BME280;14380;49.910;6.792;2023-09-08T00:39:19;98998.06;;;16.99;100.00
26807;BME280;14380;49.910;6.792;2023-09-08T00:41:45;98998.16;;;16.97;100.00
26807;BME280;14380;49.910;6.792;2023-09-08T00:44:12;98996.53;;;16.83;100.00
26807;BME280;14380;49.910;6.792;2023-09-08T00:46:40;99000.41;;;16.79;100.00
26807;BME280;14380;49.910;6.792;2023-09-08T00:49:06;98996.63;;;16.82;100.00
26807;BME280;14380;49.910;6.792;2023-09-08T00:51:34;99003.28;;;16.64;100.00
26807;BME280;14380;49.910;6.792;2023-09-08T00:54:03;99002.69;;;16.84;100.00
26807;BME280;14380;49.910;6.792;2023-09-08T00:56:30;98990.97;;;16.86;100.00
26807;BME280;14380;49.910;6.792;2023-09-08T00:58:56;98990.84;;;16.76;100.00
26807;BME280;14380;49.910;6.792;2023-09-08T01:01:24;98995.94;;;16.91;100.00
26807;BME280;14380;49.910;6.792;2023-09-08T01:03:51;98994.84;;;16.82;100.00
26807;BME280;14380;49.910;6.792;2023-09-08T01:06:18;98989.59;;;16.69;100.00
26807;BME280;14380;49.910;6.792;2023-09-08T01:08:45;98986.13;;;16.91;100.00
26807;BME280;14380;49.910;6.792;2023-09-08T01:11:11;98987.44;;;16.74;100.00
26807;BME280;14380;49.910;6.792;2023-09-08T01:13:38;99001.25;;;16.68;100.00
26807;BME280;14380;49.910;6.792;2023-09-08T01:16:04;99001.34;;;16.67;100.00
26807;BME280;14380;49.910;6.792;2023-09-08T01:18:31;99001.09;;;16.70;100.00
26807;BME280;14380;49.910;6.792;2023-09-08T01:24:11;98992.78;;;16.74;100.00
26807;BME280;14380;49.910;6.792;2023-09-08T01:26:45;98993.09;;;16.70;100.00
26807;BME280;14380;49.910;6.792;2023-09-08T01:29:13;98984.03;;;16.72;100.00
26807;BME280;14380;49.910;6.792;2023-09-08T01:31:40;98988.16;;;16.88;100.00
26807;BME280;14380;49.910;6.792;2023-09-08T01:34:08;98985.81;;;16.60;100.00
26807;BME280;14380;49.910;6.792;2023-09-08T01:36:35;98997.13;;;16.75;100.00
26807;BME280;14380;49.910;6.792;2023-09-08T01:39:02;98987.66;;;16.60;100.00
26807;BME280;14380;49.910;6.792;2023-09-08T01:41:29;98989.53;;;16.46;100.00
26807;BME280;14380;49.910;6.792;2023-09-08T01:43:58;98992.19;;;16.46;100.00
26807;BME280;14380;49.910;6.792;2023-09-08T01:46:24;98987.47;;;16.39;100.00
26807;BME280;14380;49.910;6.792;2023-09-08T01:48:51;98988.06;;;16.42;100.00
26807;BME280;14380;49.910;6.792;2023-09-08T01:51:17;98980.44;;;16.38;100.00
26807;BME280;14380;49.910;6.792;2023-09-08T01:53:44;98988.53;;;16.36;100.00
26807;BME280;14380;49.910;6.792;2023-09-08T01:56:10;98983.69;;;16.30;100.00
26807;BME280;14380;49.910;6.792;2023-09-08T01:58:37;98983.78;;;16.28;100.00
26807;BME280;14380;49.910;6.792;2023-09-08T02:01:04;98979.00;;;16.45;100.00
26807;BME280;14380;49.910;6.792;2023-09-08T02:03:31;98974.66;;;16.44;100.00
26807;BME280;14380;49.910;6.792;2023-09-08T02:05:58;98976.34;;;16.45;100.00
26807;BME280;14380;49.910;6.792;2023-09-08T02:08:25;98976.44;;;16.43;100.00
26807;BME280;14380;49.910;6.792;2023-09-08T02:10:52;98975.97;;;16.49;100.00
26807;BME280;14380;49.910;6.792;2023-09-08T02:13:18;98981.78;;;16.43;100.00
26807;BME280;14380;49.910;6.792;2023-09-08T02:15:45;98973.69;;;16.56;100.00
26807;BME280;14380;49.910;6.792;2023-09-08T02:18:12;98975.00;;;16.15;100.00
26807;BME280;14380;49.910;6.792;2023-09-08T02:20:40;98973.38;;;16.25;100.00
26807;BME280;14380;49.910;6.792;2023-09-08T02:23:07;98984.81;;;16.39;100.00
26807;BME280;14380;49.910;6.792;2023-09-08T02:25:33;98974.00;;;16.29;100.00
26807;BME280;14380;49.910;6.792;2023-09-08T02:28:00;98974.47;;;16.23;100.00
26807;BME280;14380;49.910;6.792;2023-09-08T02:30:26;98970.47;;;16.28;100.00
26807;BME280;14380;49.910;6.792;2023-09-08T02:32:53;98976.53;;;16.30;100.00
26807;BME280;14380;49.910;6.792;2023-09-08T02:35:21;98976.91;;;16.26;100.00
26807;BME280;14380;49.910;6.792;2023-09-08T02:37:48;98979.16;;;16.19;100.00
26807;BME280;14380;49.910;6.792;2023-09-08T02:40:15;98972.75;;;16.22;100.00
26807;BME280;14380;49.910;6.792;2023-09-08T02:42:41;98970.31;;;16.18;100.00
26807;BME280;14380;49.910;6.792;2023-09-08T02:45:08;98977.06;;;16.11;100.00
26807;BME280;14380;49.910;6.792;2023-09-08T02:47:35;98972.34;;;16.03;100.00
26807;BME280;14380;49.910;6.792;2023-09-08T02:50:01;98977.59;;;16.16;100.00
26807;BME280;14380;49.910;6.792;2023-09-08T02:52:31;98979.00;;;16.09;100.00
26807;BME280;14380;49.910;6.792;2023-09-08T02:54:57;98983.72;;;16.05;100.00
26807;BME280;14380;49.910;6.792;2023-09-08T02:57:24;98983.66;;;15.94;100.00
26807;BME280;14380;49.910;6.792;2023-09-08T02:59:50;98981.75;;;15.96;100.00
26807;BME280;14380;49.910;6.792;2023-09-08T03:02:17;98983.72;;;16.05;100.00
26807;BME280;14380;49.910;6.792;2023-09-08T03:04:43;98979.22;;;16.06;100.00
26807;BME280;14380;49.910;6.792;2023-09-08T03:07:10;98975.22;;;16.00;100.00
26807;BME280;14380;49.910;6.792;2023-09-08T03:09:38;98985.75;;;16.02;100.00
26807;BME280;14380;49.910;6.792;2023-09-08T03:12:04;98977.06;;;16.11;100.00
26807;BME280;14380;49.910;6.792;2023-09-08T03:14:31;98985.28;;;16.08;100.00
26807;BME280;14380;49.910;6.792;2023-09-08T03:16:57;98979.69;;;16.00;100.00
26807;BME280;14380;49.910;6.792;2023-09-08T03:19:24;98978.16;;;16.09;100.00
26807;BME280;14380;49.910;6.792;2023-09-08T03:21:50;98990.69;;;15.95;100.00
26807;BME280;14380;49.910;6.792;2023-09-08T03:24:17;98981.88;;;16.06;100.00
26807;BME280;14380;49.910;6.792;2023-09-08T03:26:45;98984.50;;;15.95;100.00
26807;BME280;14380;49.910;6.792;2023-09-08T03:29:11;98978.38;;;15.81;100.00
26807;BME280;14380;49.910;6.792;2023-09-08T03:31:37;98972.16;;;15.94;100.00
26807;BME280;14380;49.910;6.792;2023-09-08T03:34:04;98980.81;;;15.84;100.00
26807;BME280;14380;49.910;6.792;2023-09-08T03:36:31;98973.38;;;15.89;100.00
26807;BME280;14380;49.910;6.792;2023-09-08T03:39:00;98969.06;;;15.63;100.00
26807;BME280;14380;49.910;6.792;2023-09-08T03:41:27;98966.63;;;15.84;100.00
26807;BME280;14380;49.910;6.792;2023-09-08T03:43:55;98970.69;;;15.76;100.00
26807;BME280;14380;49.910;6.792;2023-09-08T03:46:21;98962.22;;;15.96;100.00
26807;BME280;14380;49.910;6.792;2023-09-08T03:48:49;98967.81;;;15.80;100.00
26807;BME280;14380;49.910;6.792;2023-09-08T03:51:16;98967.06;;;15.53;100.00
26807;BME280;14380;49.910;6.792;2023-09-08T03:53:42;98972.34;;;15.66;100.00
26807;BME280;14380;49.910;6.792;2023-09-08T03:56:09;98967.94;;;15.78;100.00
26807;BME280;14380;49.910;6.792;2023-09-08T03:58:35;98972.09;;;15.69;100.00
26807;BME280;14380;49.910;6.792;2023-09-08T04:01:03;98978.13;;;15.47;100.00
26807;BME280;14380;49.910;6.792;2023-09-08T04:03:29;98973.41;;;15.64;100.00
26807;BME280;14380;49.910;6.792;2023-09-08T04:05:56;98977.47;;;15.56;100.00
26807;BME280;14380;49.910;6.792;2023-09-08T04:08:22;98974.09;;;15.54;100.00
26807;BME280;14380;49.910;6.792;2023-09-08T04:10:49;98982.72;;;15.58;100.00
26807;BME280;14380;49.910;6.792;2023-09-08T04:13:16;98984.59;;;15.69;100.00
26807;BME280;14380;49.910;6.792;2023-09-08T04:15:42;98976.81;;;15.66;100.00
26807;BME280;14380;49.910;6.792;2023-09-08T04:18:10;98978.22;;;15.58;100.00
26807;BME280;14380;49.910;6.792;2023-09-08T04:20:36;98984.47;;;15.70;100.00
26807;BME280;14380;49.910;6.792;2023-09-08T04:23:03;98978.25;;;15.45;100.00
26807;BME280;14380;49.910;6.792;2023-09-08T04:25:30;98982.88;;;15.30;100.00
26807;BME280;14380;49.910;6.792;2023-09-08T04:27:56;98986.06;;;15.36;100.00
26807;BME280;14380;49.910;6.792;2023-09-08T04:30:23;98982.75;;;15.32;100.00
26807;BME280;14380;49.910;6.792;2023-09-08T04:32:49;98988.53;;;15.13;100.00
26807;BME280;14380;49.910;6.792;2023-09-08T04:35:17;98984.81;;;15.28;100.00
26807;BME280;14380;49.910;6.792;2023-09-08T04:37:43;98987.03;;;15.35;100.00
26807;BME280;14380;49.910;6.792;2023-09-08T04:40:10;98986.06;;;15.36;100.00
26807;BME280;14380;49.910;6.792;2023-09-08T04:42:37;98975.75;;;15.31;100.00
26807;BME280;14380;49.910;6.792;2023-09-08T04:45:04;98980.09;;;15.32;100.00
26807;BME280;14380;49.910;6.792;2023-09-08T04:47:31;98981.28;;;15.28;100.00
26807;BME280;14380;49.910;6.792;2023-09-08T04:49:57;98994.56;;;15.28;100.00
26807;BME280;14380;49.910;6.792;2023-09-08T04:52:25;98990.22;;;15.27;100.00
26807;BME280;14380;49.910;6.792;2023-09-08T04:54:52;98986.28;;;15.32;100.00
26807;BME280;14380;49.910;6.792;2023-09-08T04:57:18;98991.72;;;15.18;100.00
26807;BME280;14380;49.910;6.792;2023-09-08T04:59:45;98992.28;;;15.10;100.00
26807;BME280;14380;49.910;6.792;2023-09-08T05:02:11;98990.16;;;15.15;100.00
26807;BME280;14380;49.910;6.792;2023-09-08T05:04:38;98991.19;;;15.13;100.00
26807;BME280;14380;49.910;6.792;2023-09-08T05:07:04;98993.22;;;15.22;100.00
26807;BME280;14380;49.910;6.792;2023-09-08T05:09:32;98997.78;;;15.20;100.00
26807;BME280;14380;49.910;6.792;2023-09-08T05:11:59;98993.56;;;15.18;100.00
26807;BME280;14380;49.910;6.792;2023-09-08T05:14:26;98999.41;;;15.23;100.00
26807;BME280;14380;49.910;6.792;2023-09-08T05:16:53;98994.06;;;15.23;100.00
26807;BME280;14380;49.910;6.792;2023-09-08T05:19:21;98998.19;;;15.27;100.00
26807;BME280;14380;49.910;6.792;2023-09-08T05:21:50;98994.56;;;15.41;100.00
26807;BME280;14380;49.910;6.792;2023-09-08T05:24:16;99000.56;;;15.19;100.00
26807;BME280;14380;49.910;6.792;2023-09-08T05:26:44;98997.16;;;15.29;100.00
26807;BME280;14380;49.910;6.792;2023-09-08T05:29:11;98990.66;;;15.08;100.00
26807;BME280;14380;49.910;6.792;2023-09-08T05:31:37;98998.41;;;15.24;100.00
26807;BME280;14380;49.910;6.792;2023-09-08T05:34:04;98994.06;;;15.36;100.00
26807;BME280;14380;49.910;6.792;2023-09-08T05:36:30;98996.44;;;15.14;100.00
26807;BME280;14380;49.910;6.792;2023-09-08T05:38:58;98988.94;;;15.32;100.00
26807;BME280;14380;49.910;6.792;2023-09-08T05:41:24;98995.75;;;15.37;100.00
26807;BME280;14380;49.910;6.792;2023-09-08T05:43:52;98999.81;;;15.16;100.00
26807;BME280;14380;49.910;6.792;2023-09-08T05:46:19;99002.66;;;15.39;100.00
26807;BME280;14380;49.910;6.792;2023-09-08T05:48:45;98999.41;;;15.23;100.00
26807;BME280;14380;49.910;6.792;2023-09-08T05:51:12;98997.53;;;15.36;100.00
26807;BME280;14380;49.910;6.792;2023-09-08T05:53:39;99004.16;;;15.30;100.00
26807;BME280;14380;49.910;6.792;2023-09-08T05:56:05;99008.75;;;15.15;100.00
26807;BME280;14380;49.910;6.792;2023-09-08T05:58:32;99011.22;;;15.19;100.00
26807;BME280;14380;49.910;6.792;2023-09-08T06:01:00;99005.66;;;15.72;100.00
26807;BME280;14380;49.910;6.792;2023-09-08T06:03:27;99001.50;;;15.68;100.00
26807;BME280;14380;49.910;6.792;2023-09-08T06:05:53;99005.31;;;15.76;100.00
26807;BME280;14380;49.910;6.792;2023-09-08T06:08:20;99009.84;;;15.63;100.00
26807;BME280;14380;49.910;6.792;2023-09-08T06:10:46;99008.41;;;15.83;100.00
26807;BME280;14380;49.910;6.792;2023-09-08T06:13:13;99014.09;;;15.66;100.00
26807;BME280;14380;49.910;6.792;2023-09-08T06:15:39;99009.97;;;15.86;100.00
26807;BME280;14380;49.910;6.792;2023-09-08T06:18:08;99009.56;;;15.92;100.00
26807;BME280;14380;49.910;6.792;2023-09-08T06:20:35;99009.44;;;15.81;100.00
26807;BME280;14380;49.910;6.792;2023-09-08T06:23:01;99005.56;;;15.98;100.00
26807;BME280;14380;49.910;6.792;2023-09-08T06:25:28;99001.84;;;16.36;100.00
26807;BME280;14380;49.910;6.792;2023-09-08T06:27:54;99002.59;;;16.85;100.00
26807;BME280;14380;49.910;6.792;2023-09-08T06:30:21;99000.28;;;16.92;100.00
26807;BME280;14380;49.910;6.792;2023-09-08T06:32:47;98998.34;;;16.83;100.00
26807;BME280;14380;49.910;6.792;2023-09-08T06:35:15;98996.09;;;17.35;100.00
26807;BME280;14380;49.910;6.792;2023-09-08T06:37:42;98997.22;;;17.88;100.00
26807;BME280;14380;49.910;6.792;2023-09-08T06:40:08;98995.97;;;18.03;100.00
26807;BME280;14380;49.910;6.792;2023-09-08T06:42:35;98998.53;;;17.93;100.00
26807;BME280;14380;49.910;6.792;2023-09-08T06:45:01;99002.31;;;18.56;100.00
26807;BME280;14380;49.910;6.792;2023-09-08T06:47:28;98998.44;;;18.91;100.00
26807;BME280;14380;49.910;6.792;2023-09-08T06:49:54;98995.03;;;18.89;100.00
26807;BME280;14380;49.910;6.792;2023-09-08T06:52:22;98996.84;;;19.31;100.00
26807;BME280;14380;49.910;6.792;2023-09-08T06:54:49;98990.06;;;19.87;100.00
26807;BME280;14380;49.910;6.792;2023-09-08T06:57:17;98994.81;;;19.74;100.00
26807;BME280;14380;49.910;6.792;2023-09-08T06:59:44;98995.66;;;19.65;100.00
26807;BME280;14380;49.910;6.792;2023-09-08T07:02:11;98991.06;;;19.96;100.00
26807;BME280;14380;49.910;6.792;2023-09-08T07:04:37;98984.06;;;20.05;100.00
26807;BME280;14380;49.910;6.792;2023-09-08T07:07:04;98990.53;;;20.12;100.00
26807;BME280;14380;49.910;6.792;2023-09-08T07:09:33;98985.72;;;20.26;100.00
26807;BME280;14380;49.910;6.792;2023-09-08T07:12:00;98983.19;;;20.34;100.00
26807;BME280;14380;49.910;6.792;2023-09-08T07:14:27;98990.53;;;20.52;100.00
26807;BME280;14380;49.910;6.792;2023-09-08T07:16:53;98986.97;;;20.71;100.00
26807;BME280;14380;49.910;6.792;2023-09-08T07:19:20;99001.78;;;20.65;100.00
26807;BME280;14380;49.910;6.792;2023-09-08T07:21:46;98994.72;;;20.84;100.00
26807;BME280;14380;49.910;6.792;2023-09-08T07:24:13;98995.34;;;21.15;100.00
26807;BME280;14380;49.910;6.792;2023-09-08T07:26:40;98988.81;;;21.18;100.00
26807;BME280;14380;49.910;6.792;2023-09-08T07:29:07;98991.31;;;21.29;100.00
26807;BME280;14380;49.910;6.792;2023-09-08T07:31:33;98987.13;;;21.17;100.00
26807;BME280;14380;49.910;6.792;2023-09-08T07:34:00;98982.22;;;21.68;100.00
26807;BME280;14380;49.910;6.792;2023-09-08T07:36:26;98993.75;;;21.78;100.00
26807;BME280;14380;49.910;6.792;2023-09-08T07:38:53;98987.50;;;21.60;100.00
26807;BME280;14380;49.910;6.792;2023-09-08T07:41:19;98991.97;;;21.69;100.00
26807;BME280;14380;49.910;6.792;2023-09-08T07:43:47;98998.38;;;21.86;100.00
26807;BME280;14380;49.910;6.792;2023-09-08T07:46:14;98995.25;;;22.09;100.00
26807;BME280;14380;49.910;6.792;2023-09-08T07:48:41;98991.19;;;22.23;100.00
26807;BME280;14380;49.910;6.792;2023-09-08T07:51:07;98989.25;;;22.15;100.00
26807;BME280;14380;49.910;6.792;2023-09-08T07:53:34;98991.78;;;22.35;100.00
26807;BME280;14380;49.910;6.792;2023-09-08T07:56:00;98994.13;;;22.48;100.00
26807;BME280;14380;49.910;6.792;2023-09-08T07:58:27;98997.84;;;22.37;100.00
26807;BME280;14380;49.910;6.792;2023-09-08T08:00:55;98990.88;;;22.26;100.00
26807;BME280;14380;49.910;6.792;2023-09-08T08:03:21;98993.03;;;22.40;100.00
26807;BME280;14380;49.910;6.792;2023-09-08T08:05:48;98985.75;;;22.51;100.00
26807;BME280;14380;49.910;6.792;2023-09-08T08:08:14;98983.69;;;22.71;100.00
26807;BME280;14380;49.910;6.792;2023-09-08T08:10:41;98995.28;;;22.98;100.00
26807;BME280;14380;49.910;6.792;2023-09-08T08:13:07;98996.09;;;22.90;100.00
26807;BME280;14380;49.910;6.792;2023-09-08T08:15:35;98994.13;;;23.00;100.00
26807;BME280;14380;49.910;6.792;2023-09-08T08:18:04;98992.91;;;22.95;100.00
26807;BME280;14380;49.910;6.792;2023-09-08T08:20:31;98986.09;;;23.09;100.00
26807;BME280;14380;49.910;6.792;2023-09-08T08:23:00;98988.91;;;23.25;100.00
26807;BME280;14380;49.910;6.792;2023-09-08T08:25:26;98985.94;;;23.37;100.00
26807;BME280;14380;49.910;6.792;2023-09-08T08:27:53;98983.16;;;23.71;100.00
26807;BME280;14380;49.910;6.792;2023-09-08T08:30:19;98983.03;;;23.73;100.00
26807;BME280;14380;49.910;6.792;2023-09-08T08:32:46;98981.88;;;23.92;99.15
26807;BME280;14380;49.910;6.792;2023-09-08T08:35:14;98983.97;;;23.98;100.00
26807;BME280;14380;49.910;6.792;2023-09-08T08:37:40;98987.25;;;23.84;100.00
26807;BME280;14380;49.910;6.792;2023-09-08T08:40:09;98982.25;;;24.14;100.00
26807;BME280;14380;49.910;6.792;2023-09-08T08:42:37;98980.44;;;24.14;100.00
26807;BME280;14380;49.910;6.792;2023-09-08T08:45:04;98977.56;;;24.74;100.00
26807;BME280;14380;49.910;6.792;2023-09-08T08:47:31;98981.25;;;24.56;100.00
26807;BME280;14380;49.910;6.792;2023-09-08T08:49:59;98978.22;;;24.68;100.00
26807;BME280;14380;49.910;6.792;2023-09-08T08:52:28;98975.34;;;24.77;100.00
26807;BME280;14380;49.910;6.792;2023-09-08T08:54:55;98990.56;;;24.70;100.00
26807;BME280;14380;49.910;6.792;2023-09-08T08:57:22;98991.72;;;24.92;100.00
26807;BME280;14380;49.910;6.792;2023-09-08T08:59:50;98985.44;;;25.00;100.00
26807;BME280;14380;49.910;6.792;2023-09-08T09:02:17;98989.53;;;24.88;99.41
26807;BME280;14380;49.910;6.792;2023-09-08T09:04:44;98969.97;;;25.34;99.87
26807;BME280;14380;49.910;6.792;2023-09-08T09:07:11;98970.22;;;25.56;95.88
26807;BME280;14380;49.910;6.792;2023-09-08T09:09:39;98978.69;;;25.52;99.19
26807;BME280;14380;49.910;6.792;2023-09-08T09:12:06;98975.72;;;25.71;98.31
26807;BME280;14380;49.910;6.792;2023-09-08T09:14:34;98977.38;;;25.80;93.61
26807;BME280;14380;49.910;6.792;2023-09-08T09:17:01;98975.34;;;26.05;95.60
26807;BME280;14380;49.910;6.792;2023-09-08T09:19:30;98977.22;;;26.05;94.54
26807;BME280;14380;49.910;6.792;2023-09-08T09:21:58;98978.03;;;26.13;96.70
26807;BME280;14380;49.910;6.792;2023-09-08T09:24:30;98980.47;;;26.23;93.50
26807;BME280;14380;49.910;6.792;2023-09-08T09:26:59;98973.31;;;26.31;90.00
26807;BME280;14380;49.910;6.792;2023-09-08T09:29:26;98969.38;;;26.56;92.95
26807;BME280;14380;49.910;6.792;2023-09-08T09:31:54;98968.97;;;26.83;91.95
26807;BME280;14380;49.910;6.792;2023-09-08T09:34:21;98966.88;;;26.70;89.82
26807;BME280;14380;49.910;6.792;2023-09-08T09:36:48;98968.84;;;26.61;86.37
26807;BME280;14380;49.910;6.792;2023-09-08T09:39:19;98960.81;;;26.68;89.42
26807;BME280;14380;49.910;6.792;2023-09-08T09:41:46;98963.81;;;26.73;89.80
26807;BME280;14380;49.910;6.792;2023-09-08T09:44:14;98969.09;;;26.90;88.10
26807;BME280;14380;49.910;6.792;2023-09-08T09:46:43;98961.78;;;26.90;84.64
26807;BME280;14380;49.910;6.792;2023-09-08T09:49:10;98967.28;;;26.97;81.51
26807;BME280;14380;49.910;6.792;2023-09-08T09:51:40;98966.63;;;27.40;85.59
26807;BME280;14380;49.910;6.792;2023-09-08T09:54:08;98957.47;;;27.41;88.50
26807;BME280;14380;49.910;6.792;2023-09-08T09:56:37;98960.66;;;27.59;85.73
26807;BME280;14380;49.910;6.792;2023-09-08T09:59:04;98952.66;;;27.73;84.01
26807;BME280;14380;49.910;6.792;2023-09-08T10:01:32;98959.50;;;27.69;85.33
26807;BME280;14380;49.910;6.792;2023-09-08T10:04:00;98954.59;;;27.57;83.15
26807;BME280;14380;49.910;6.792;2023-09-08T10:06:29;98948.41;;;28.07;79.52
26807;BME280;14380;49.910;6.792;2023-09-08T10:08:58;98948.69;;;28.12;82.76
26807;BME280;14380;49.910;6.792;2023-09-08T10:11:28;98954.53;;;28.59;87.32
26807;BME280;14380;49.910;6.792;2023-09-08T10:13:58;98949.34;;;28.36;89.61
26807;BME280;14380;49.910;6.792;2023-09-08T10:16:27;98948.41;;;28.79;84.01
26807;BME280;14380;49.910;6.792;2023-09-08T10:18:57;98942.81;;;28.59;82.90
26807;BME280;14380;49.910;6.792;2023-09-08T10:21:26;98949.28;;;28.58;79.57
26807;BME280;14380;49.910;6.792;2023-09-08T10:23:57;98944.88;;;28.78;83.83
26807;BME280;14380;49.910;6.792;2023-09-08T10:26:27;98941.34;;;29.20;81.08
26807;BME280;14380;49.910;6.792;2023-09-08T10:28:54;98947.69;;;28.92;85.05
26807;BME280;14380;49.910;6.792;2023-09-08T10:31:23;98943.66;;;29.30;87.22
26807;BME280;14380;49.910;6.792;2023-09-08T10:33:51;98934.94;;;28.71;78.87
26807;BME280;14380;49.910;6.792;2023-09-08T10:36:19;98941.38;;;28.91;76.09
26807;BME280;14380;49.910;6.792;2023-09-08T10:38:46;98940.19;;;29.01;82.68
26807;BME280;14380;49.910;6.792;2023-09-08T10:41:27;98933.97;;;29.14;78.89
26807;BME280;14380;49.910;6.792;2023-09-08T10:44:00;98923.94;;;29.63;81.18
26807;BME280;14380;49.910;6.792;2023-09-08T10:46:29;98923.56;;;29.73;77.26
26807;BME280;14380;49.910;6.792;2023-09-08T10:49:01;98924.59;;;29.72;76.72
26807;BME280;14380;49.910;6.792;2023-09-08T10:51:30;98927.59;;;29.35;76.38
26807;BME280;14380;49.910;6.792;2023-09-08T10:53:58;98926.91;;;29.75;76.22
26807;BME280;14380;49.910;6.792;2023-09-08T10:56:27;98920.63;;;29.67;73.45
26807;BME280;14380;49.910;6.792;2023-09-08T10:58:54;98926.91;;;29.88;74.52
26807;BME280;14380;49.910;6.792;2023-09-08T11:01:21;98930.91;;;29.79;82.84
26807;BME280;14380;49.910;6.792;2023-09-08T11:03:51;98927.63;;;30.31;74.26
26807;BME280;14380;49.910;6.792;2023-09-08T11:06:19;98925.09;;;30.16;76.36
26807;BME280;14380;49.910;6.792;2023-09-08T11:08:49;98926.38;;;30.13;75.76
26807;BME280;14380;49.910;6.792;2023-09-08T11:11:18;98927.63;;;30.17;75.99
26807;BME280;14380;49.910;6.792;2023-09-08T11:13:45;98929.47;;;30.03;76.78
26807;BME280;14380;49.910;6.792;2023-09-08T11:16:13;98924.66;;;29.99;71.99
26807;BME280;14380;49.910;6.792;2023-09-08T11:18:40;98922.81;;;30.46;73.03
26807;BME280;14380;49.910;6.792;2023-09-08T11:21:08;98922.59;;;30.68;75.73
26807;BME280;14380;49.910;6.792;2023-09-08T11:23:35;98927.00;;;30.42;75.79
26807;BME280;14380;49.910;6.792;2023-09-08T11:26:03;98921.97;;;30.46;77.79
26807;BME280;14380;49.910;6.792;2023-09-08T11:28:31;98933.72;;;30.66;72.97
26807;BME280;14380;49.910;6.792;2023-09-08T11:30:58;98919.88;;;30.68;78.26
26807;BME280;14380;49.910;6.792;2023-09-08T11:33:25;98922.13;;;30.84;79.38
26807;BME280;14380;49.910;6.792;2023-09-08T11:35:52;98920.59;;;31.22;78.18
26807;BME280;14380;49.910;6.792;2023-09-08T11:38:24;98922.16;;;30.44;73.74
26807;BME280;14380;49.910;6.792;2023-09-08T11:40:51;98914.00;;;30.44;71.40
26807;BME280;14380;49.910;6.792;2023-09-08T11:43:20;98911.16;;;31.11;71.12
26807;BME280;14380;49.910;6.792;2023-09-08T11:45:46;98913.44;;;31.14;78.75
26807;BME280;14380;49.910;6.792;2023-09-08T11:48:14;98912.84;;;31.12;73.46
26807;BME280;14380;49.910;6.792;2023-09-08T11:50:40;98908.31;;;31.45;78.00
26807;BME280;14380;49.910;6.792;2023-09-08T11:53:08;98912.16;;;31.30;73.14
26807;BME280;14380;49.910;6.792;2023-09-08T11:55:34;98912.81;;;31.26;70.25
26807;BME280;14380;49.910;6.792;2023-09-08T11:58:02;98912.81;;;31.26;68.36
26807;BME280;14380;49.910;6.792;2023-09-08T12:00:30;98913.22;;;31.68;74.52
26807;BME280;14380;49.910;6.792;2023-09-08T12:03:09;98901.81;;;31.85;69.18
26807;BME280;14380;49.910;6.792;2023-09-08T12:05:36;98909.53;;;31.49;74.13
26807;BME280;14380;49.910;6.792;2023-09-08T12:08:04;98903.38;;;31.15;67.51
26807;BME280;14380;49.910;6.792;2023-09-08T12:10:37;98912.88;;;31.51;79.52
26807;BME280;14380;49.910;6.792;2023-09-08T12:13:04;98909.06;;;31.59;70.45
26807;BME280;14380;49.910;6.792;2023-09-08T12:15:33;98909.88;;;31.73;77.08
26807;BME280;14380;49.910;6.792;2023-09-08T12:18:00;98899.34;;;31.77;73.90
26807;BME280;14380;49.910;6.792;2023-09-08T12:20:27;98905.97;;;31.87;68.72
26807;BME280;14380;49.910;6.792;2023-09-08T12:22:54;98898.69;;;32.07;69.60
26807;BME280;14380;49.910;6.792;2023-09-08T12:25:20;98901.72;;;31.98;70.20
26807;BME280;14380;49.910;6.792;2023-09-08T12:27:49;98903.44;;;31.93;69.68
26807;BME280;14380;49.910;6.792;2023-09-08T12:30:17;98895.69;;;32.15;74.88
26807;BME280;14380;49.910;6.792;2023-09-08T12:32:47;98897.59;;;31.89;72.61
26807;BME280;14380;49.910;6.792;2023-09-08T12:35:20;98887.66;;;32.20;67.76
26807;BME280;14380;49.910;6.792;2023-09-08T12:37:52;98889.44;;;32.40;70.07
26807;BME280;14380;49.910;6.792;2023-09-08T12:40:19;98889.91;;;31.72;67.80
26807;BME280;14380;49.910;6.792;2023-09-08T12:42:46;98882.81;;;32.22;67.32
26807;BME280;14380;49.910;6.792;2023-09-08T12:45:12;98886.72;;;32.08;67.94
26807;BME280;14380;49.910;6.792;2023-09-08T12:47:39;98881.81;;;32.16;71.07
26807;BME280;14380;49.910;6.792;2023-09-08T12:50:07;98884.34;;;32.43;77.47
26807;BME280;14380;49.910;6.792;2023-09-08T12:52:34;98877.63;;;32.39;75.38
26807;BME280;14380;49.910;6.792;2023-09-08T12:55:00;98875.84;;;32.70;75.44